KACV

California Redwood Coast-Humboldt County Airport

Arcata/Eureka, California, USA
METAR KACV 171153Z AUTO 14005KT 10SM -RA BKN055 OVC070 09/08 A3007 RMK AO2 RAB37 SLP187 P0001 60008 70069 T00940078 10100 20083 51003
Observed Flight Rules
Dec-17 @ 11:53 UTC (46 minutes ago) Visual Flight Rules
Wind Visibility Clouds Conditions
140° at 5 knots 10 miles
  • Broken at 5,500' AGL
  • Overcast at 7,000' AGL
  • Light Rain
Temperatures Readings Precipitation
Current 9°C / 48°F
Dewpoint 8°C / 46°F
Humidity 94%
Altimeter 30.07" Hg
Pressure 1018.7 hPa
Elevation 67
Current Rain 0.01
METAR KACV 171153Z AUTO 14005KT 10SM -RA BKN055 OVC070 09/08 A3007 RMK AO2 RAB37 SLP187 P0001 60008 70069 T00940078 10100 20083 51003
Observed Flight Rules
Dec-17 @ 11:53 UTC
(46 minutes ago)
VFR
Wind Visibility
140° at 5 knots 10 miles
Clouds
  • Broken at 5,500' AGL
  • Overcast at 7,000' AGL
Conditions
  • Light Rain
Temperature Dewpoint
9°C / 48°F 8°C / 46°F
Humidity Altimeter Pressure
94% 30.07" Hg 1018.7 hPa
Current Rain
0.01